Terminal Aerodrome Forecast
Issued by NWS Wilmington, OH

Current Version | Previous Version | Graphics & Text | Print | Product List | Glossary On
Versions: 1 2 3 4 5 6 7 8 9 10 11 12 13 14 15 16 17 18 19 20 21 22 23 24 25 26 27 28 29
000
FTUS41 KILN 221700
TAFILN
TAF
KILN 221722Z 2218/2318 20012KT P6SM BKN080
     FM230300 18008KT P6SM SCT080 BKN150
      TEMPO 2308/2311 BKN025
     FM231400 16012KT P6SM SCT040 BKN150=

USA.gov is the U.S. government's official web portal to all federal, state and local government web resources and services.